Aviation Digital Data Service (ADDS)

Output produced by METARs form (2104 UTC 05 July 2015)
found at http://aviationweather.gov/adds/metars/
 
KAGC 051729Z 0518/0618 08005KT P6SM FEW040 BKN250 
     TEMPO 0608/0612 4SM BR 
     FM061200 13004KT P6SM VCSH BKN050 
     FM061700 19006KT 6SM -SHRA VCTS BKN035CB OVC050